events-overview

Kinetic Half

 

Overall Men

Lake Anna State Park - Spotsylvania, VA 5/10/2014 07:00AM

** Results are for the private use of participants and are the Intellectual Property of Set Up Events. Unauthorized use of these results is prohibited.

Place Bib Co Ag S NAME city/state Rank SWIM Rank T1 Rank Bike Rank T2 Rank RUN PENALTY TIME DQ
1204 44MKelly WilliamsonFairfax VA2000:30:294800:02:26102:11:322600:01:11401:27:33 04:13:10 
287 37MRobert GreenMidlothian VA600:27:16400:01:33202:18:04200:00:441301:31:44 04:19:20 
3524 26MJacob GildenArlington VA5100:32:336600:02:411102:24:292400:01:09101:21:56 04:22:45 
4254 40MBrian LovettAllentown PA300:25:54700:01:461202:24:51300:00:531001:30:32 04:23:54 
5415 39MBrady DehoustReston VA4600:32:208100:02:47502:20:521700:01:06301:27:23 04:24:27 
6392 29MMatt MlachakPoquoson VA9800:35:252000:02:05902:23:564100:01:19901:29:56 04:32:40 
796 44MChad AlbrightRoanoke VA3800:31:421200:01:56702:22:2613200:02:112001:34:34 04:32:48 
8279 28MRyan HuntWashington DC7000:33:353300:02:193202:32:001800:01:06201:24:10 04:33:08 
9283 23MQuinn GirouxBlacksburg VA100:24:31300:01:312802:30:421300:01:022301:35:35 04:33:19 
10205 40MJoel BellVirginia Beach VA3700:31:411600:02:02602:21:20500:00:554101:39:43 04:35:38 
11525 33MDaniel RoyceRichmond VA200:25:471800:02:053302:32:031000:00:582701:36:54 04:37:46 
12320 44MDarren WrigleyWarrenton VA9400:35:153000:02:151002:24:231400:01:032101:35:08 04:38:03 
133MM37MKevin SoederJacksonville NC10600:35:462100:02:062902:31:18900:00:58601:28:07 04:38:13 
14227 43MTerry Mannion JrWest Chester PA3000:31:152400:02:062202:29:317700:01:381901:34:31 04:38:59 
15143 27MRonald PapaArlington VA400:26:508700:02:566002:36:593300:01:151201:31:25 04:39:24 
16268 38MChad WolfAlexandria VA3300:31:235700:02:332502:30:125100:01:221501:33:58 04:39:27 
17344 44MJohn SchlosserKennett Square PA1800:30:223900:02:23802:23:166900:01:313101:38:4100:04:0004:40:10 
1863 45MSteven SmithHampton VA2900:31:1311000:03:122702:30:424800:01:211101:30:3300:04:0004:40:59 
19151 36MAdam GoergeRuckersville VA5700:32:513800:02:223402:32:183600:01:171801:34:22 04:43:09 
20110 24MMohammad SaadCary NC10400:35:447200:02:434802:35:246300:01:28501:27:54 04:43:11 
21385 23MWyatt LowdermilkBlacksburg VA6000:32:534500:02:251602:27:343100:01:143801:39:35 04:43:38 
22336 35MJack BasileMacungie PA6200:32:55900:01:551802:28:13800:00:584901:41:58 04:45:57 
2329 47MPatrick LeonardFalls Church VA7800:34:047300:02:441702:27:5610400:01:484201:39:43 04:46:13 
2485 24MJames SheridanEllicott City MD2300:30:37600:01:434402:35:082300:01:083001:38:13 04:46:48 
2531 47MScott BaldwinReston VA5900:32:535400:02:314602:35:171500:01:042201:35:11 04:46:53 
26358 52MDavid PhillipsArlington VA8400:34:4510100:03:082302:29:375900:01:272901:38:01 04:46:56 
2779 23MIan RappaportCharlottesville VA7700:34:02500:01:432002:28:233400:01:164801:41:42 04:47:03 
28215 20MDylan KeightleyAlexandria VA500:26:533200:02:1610302:43:2610100:01:461701:34:18 04:48:37 
29331 40MBryson FilbertPotomac MD2600:30:594600:02:263902:34:2810000:01:464001:39:37 04:49:14 
30399 33MAndrew CrossKailua HI10200:35:41800:01:473102:31:497000:01:333401:39:15 04:50:02 
PlaceBibCoAgSNAMEcity/stateRankSWIMRankT1RankBikeRankT2RankRUNPENALTYTIMEDQ
3198 29MSteven KellerNewport News VA4700:32:254100:02:233502:33:264000:01:194501:40:52 04:50:23 
32315 39MGeoffrey DefilippiFredericksburg VA1600:29:473600:02:206602:37:423500:01:173601:39:21 04:50:26 
33276 47MJohn FitzgeraldChesapeake VA7400:33:483100:02:164002:34:31700:00:563501:39:20 04:50:49 
342MM27MCraig MillerAlexandria VA3600:31:361000:01:554202:35:011100:00:594601:41:22 04:50:51 
3556 42MAdam FragerNewport News VA4100:31:563700:02:213002:31:366200:01:275501:43:58 04:51:16 
36370 33MMichael WolfeVirginia Beach VA9700:35:209200:02:586202:37:102100:01:072501:35:55 04:52:29 
37348 38MJames WilsonWashington DC12800:37:002900:02:141402:26:414300:01:206001:45:43 04:52:57 
38224 49MCharles SmithRoanoke VA5500:32:452800:02:122602:30:143900:01:186401:46:43 04:53:09 
39338 35MBrady NelsonArlington VA7100:33:392500:02:075002:35:272800:01:134701:41:23 04:53:46 
40352 35MKai FilionWashington DC12300:36:5324400:05:107702:39:0818000:02:47801:29:52 04:53:49 
41413 32MCharles KaplanAlexandria VA8100:34:346100:02:388102:40:004900:01:222601:36:08 04:54:40 
42312 33MMatthew DiehlCatasauqua PA9000:35:026200:02:391502:27:321900:01:067401:48:30 04:54:46 
43528 37MJohn DoughertyRichmond VA4300:32:117800:02:467302:38:3610300:01:484301:40:27 04:55:46 
44164 37MChris LombardiWashington DC3400:31:259700:03:0612402:47:427800:01:381401:33:17 04:57:07 
45248 36MJeffrey McCroskeyNorfolk VA7600:33:532700:02:106302:37:143000:01:135201:42:54 04:57:22 
46309 46MRich JoyAlexandria VA6400:33:0310000:03:075802:36:415800:01:265301:43:08 04:57:23 
4783 25MAlex SpottScranton PA12000:36:472600:02:087602:39:025000:01:223201:38:53 04:58:10 
48362 28MMark CastrovinciRaleigh NC6500:33:094900:02:279302:41:558300:01:403301:39:11 04:58:20 
49289 21MMatthew SargeSan Jose CA1900:30:2512800:03:2017802:55:278800:01:43701:28:39 04:59:33 
50523 53MVincent OrtizChesapeake VA15300:38:2112700:03:207902:39:2616200:02:352401:35:54 04:59:33 
51403 66MWilliam WrenArlington VA1500:29:4710800:03:116802:38:1810900:01:516901:47:31 05:00:36 
52153 43MChuck McGeeUrbana MD12200:36:5018100:04:083702:34:1821300:03:275001:42:00 05:00:41 
53172 55MJohn MazurArlington VA4500:32:2014900:03:355502:36:218700:01:436501:47:19 05:01:15 
5494 51MEric MackemReston VA7900:34:0811200:03:134102:34:3913300:02:126701:47:25 05:01:36 
55166 38MAlejandro EscobarArlington VA2700:31:069800:03:0711402:45:547300:01:364401:40:51 05:02:32 
5657 50MJames GodekVa Beach VA18900:39:5015200:03:375302:35:516800:01:305101:42:40 05:03:25 
57243 46MJeff FoxRichmond VA4800:32:271900:02:056702:38:111200:01:028201:49:45 05:03:28 
58218 21MStephen JordanBlacksburg VA5400:32:44200:01:2310202:43:13400:00:545901:45:34 05:03:46 
59298 38MThomas PulhamWashington DC8500:34:4911400:03:138702:40:444200:01:195401:43:45 05:03:48 
60394 21MDane KingDeWitt VA2200:30:361500:02:006502:37:355200:01:229301:52:47 05:04:19 
61236 45MJed VanichkachornManakin Sabot VA8000:34:248900:02:578602:40:394600:01:216201:46:10 05:05:29 
PlaceBibCoAgSNAMEcity/stateRankSWIMRankT1RankBikeRankT2RankRUNPENALTYTIMEDQ
62327 35MTravis EadsLewisburg WV700:27:182300:02:065102:35:397900:01:3812501:59:41 05:06:21 
63363 35MDan BeckmannCentreville VA25400:44:0615900:03:437002:38:2916000:02:332801:37:41 05:06:30 
64208 49MIsidoro ReverteHerndon VA5200:32:3526700:05:524302:35:028400:01:409101:52:05 05:07:13 
65265 43MPhilip BaetckeReston VA7500:33:525200:02:2911502:46:003200:01:156101:45:59 05:09:33 
66181 36MThomas GenareoLakewood NY17000:39:127500:02:457502:38:593700:01:176801:47:25 05:09:37 
67379 31MKyle AaronsWashington DC18200:39:2721500:04:355402:35:5414300:02:227701:48:43 05:10:59 
6853 54MTim DuffeyArlington VA14200:37:4416700:03:528202:40:085300:01:237601:48:37 05:11:42 
69258 47MStephan HessPenn Laird VA10000:35:3119000:04:1510402:43:4410600:01:496601:47:21 05:12:38 
70187 37MAndrew JonesArlington VA10300:35:426900:02:437202:38:362900:01:1310601:54:59 05:13:10 
71343 35MStephen MillerHampton VA19100:39:545900:02:368502:40:264400:01:218501:50:03 05:14:17 
72393 46MIan HoffmanWashington DC15400:38:215600:02:328902:41:1715500:02:278301:50:01 05:14:36 
73410 41MBryan PeacheyRaleigh NC9500:35:178200:02:499902:42:588200:01:399501:52:55 05:15:37 
74161 36MSebastien AudyWashington DC21500:41:2420300:04:2410702:43:488100:01:395701:44:29 05:15:43 
7517MM32MDavid BecerraVirginia Beach VA14300:37:4813100:03:2313302:49:047200:01:345601:44:03 05:15:50 
76520 33MAlex RockWashington DC23400:42:177600:02:459502:42:416000:01:277101:47:35 05:16:44 
77369 23MGuy SkordAnnapolis MD10500:35:4511300:03:1320403:01:3411900:02:041601:34:10 05:16:44 
78184 37MPatrick PannettWashington DC17800:39:208000:02:479602:42:455500:01:246301:46:3400:04:0005:16:48 
79190 28MJon PooleAlexandria VA9900:35:306400:02:4014002:50:01600:00:557801:48:46 05:17:51 
80137 23MAndrew ColeSan Jose CA900:27:3413000:03:2312102:47:075400:01:2411901:58:55 05:18:21 
81152 57MThomas JonesAshburn VA12600:36:5816600:03:5113002:48:0714000:02:217001:47:35 05:18:50 
82384 29MJavier MontenegroFrederick MD24000:42:406300:02:398802:41:0512100:02:068601:50:36 05:19:03 
8325 42MMichael SliwaWashington DC3500:31:3412500:03:1911102:45:395700:01:255801:45:1400:12:0005:19:08 
84238 33MPatrick BurnsArlington VA12500:36:589300:02:5911802:46:509100:01:448901:51:18 05:19:46 
85201 49MJames LutzReston VA21800:41:3410400:03:097802:39:252000:01:0710501:54:50 05:20:03 
867MM45MRodolfo QuispeCedar Point NC27200:46:5420700:04:256102:37:006100:01:278801:50:48 05:20:34 
87300 41MBrent McDufieGaithersburg MD12100:36:495000:02:2810602:43:472200:01:0810901:56:30 05:20:39 
88361 36MTodd StaffordLeesburg VA11900:36:4620200:04:236902:38:2312200:02:0613202:02:03 05:23:39 
89466C32MFrank ScalzoRotterdam Junction NY20600:40:487400:02:449402:42:0022700:03:5510301:54:45 05:24:10 
90355 25MDan BinderWashington DC1300:28:3914800:03:3514902:51:2110800:01:5012101:59:04 05:24:26 
91522 55MJoseph Baird2647 Falls Church VA16000:38:4415700:03:405702:36:339000:01:4314002:04:02 05:24:40 
9219 31MDaniel RiegelWashington DC26200:44:4712300:03:1515102:51:399900:01:463901:39:3600:04:0005:25:01 
PlaceBibCoAgSNAMEcity/stateRankSWIMRankT1RankBikeRankT2RankRUNPENALTYTIMEDQ
93328 42MStephen HunniusAlexandria VA9600:35:1927300:06:0611002:45:1824700:04:3710001:54:03 05:25:22 
94303 35MDavid TaylorStafford VA19600:40:199900:03:0713702:49:139700:01:459001:52:05 05:26:27 
95128 38MGiovanni CordovaReston VA19500:40:0422500:04:4912002:46:5211000:01:529601:53:00 05:26:35 
9674 36MMatthew StromWashington DC18000:39:2214400:03:338402:40:2417300:02:4513002:01:18 05:27:20 
97231 34MLucas PaganiniWashington DC8200:34:3512200:03:1513202:49:0211500:01:5810201:54:3300:04:0005:27:22 
986 58MGreg GuintherRichmond VA8700:34:514400:02:259102:41:188500:01:4115602:07:33 05:27:46 
99375 46MMichael WhitehurstSouth Mills NC14700:37:5913900:03:2817302:54:374700:01:218701:50:46 05:28:10 
1005MM39MJoel FreyenhagenStone Ridge VA15000:38:0825900:05:2912202:47:1017600:02:4710401:54:50 05:28:22 
10121 43MMark LindsayHigh Point NC13600:37:2817600:04:0016402:53:5321800:03:358101:49:40 05:28:33 
102121 47MMark DownesBel Air MD6800:33:196000:02:379202:41:458900:01:4311401:57:3700:12:0005:28:59 
103133 48MMichaelson BuchananRichmond VA13700:37:3013800:03:288302:40:2316100:02:3414602:05:09 05:29:02 
10415MM33MGlen CookSilver Spring MD6300:32:5618500:04:1120003:00:5513000:02:107901:48:53 05:29:03 
105374 50MCarlos SilvaPotomac MD18700:39:4112400:03:1818102:56:074500:01:218001:49:21 05:29:46 
10677 51MCarl SchneiderEllicott City MD25300:44:057000:02:439702:42:477400:01:3612201:59:11 05:30:20 
107162 51MFernando CarboneBethesda MD16900:39:1124300:05:1017602:55:2012600:02:087501:48:36 05:30:23 
10858 30MBryan SnyderGaithersburg MD11300:36:1210700:03:1116102:53:2816600:02:4010701:55:00 05:30:29 
109136 34MNick HussonKing George VA17200:39:1517300:04:0022303:05:0119800:03:023701:39:25 05:30:41 
110288 37MDaniel ShomakerNorfolk VA9200:35:0322600:04:5015602:52:3220100:03:0311001:56:30 05:31:56 
11197 29MKarl UlmanisLexington Park MD13500:37:2316800:03:5413902:49:5313900:02:1911801:58:52 05:32:19 
112116 28MMichael BuonocoreArlington VA17300:39:169400:02:5912902:47:5924300:04:2611701:58:51 05:33:30 
113104 44MGuillermo CabreraWashington DC23800:42:2316300:03:4619202:58:127100:01:347201:47:39 05:33:31 
114404 39MLee YountsRichmond VA14000:37:378600:02:5513802:49:1512700:02:0913302:02:07 05:34:01 
115134 53MPhillip KardisFalls Church VA15200:38:1618800:04:1313502:49:0813400:02:1312802:00:26 05:34:14 
116200 62MDennis RainearRichmond VA11200:36:099600:03:055602:36:2414900:02:2517802:12:5600:04:0005:34:57 
11784 55MEd NorlanderCulpeper VA20700:40:482200:02:0614702:51:035600:01:2412601:59:42 05:35:01 
11892 33MJustin MarkelHavre De Grace MD14600:37:5115400:03:3812802:47:5813600:02:1413702:03:29 05:35:08 
119406 42MVaughn TempleFrederick MD6700:33:1618600:04:1110802:44:2023900:04:1817702:12:23 05:38:26 
120209 51MDavid KulikBethesda MD14900:38:0625200:05:1820103:00:578600:01:429401:52:48 05:38:49 
121109MC43MJeff HalperDerwood MD11800:36:4411600:03:1410102:43:017500:01:3818102:14:15 05:38:50 
122356 39MMichael ReadBurke VA22800:42:0916400:03:5015802:53:0223000:03:5911101:56:40 05:39:38 
123313 59MRob ColburnAshburn VA8300:34:388500:02:5113402:49:0519000:02:5416802:10:28 05:39:54 
PlaceBibCoAgSNAMEcity/stateRankSWIMRankT1RankBikeRankT2RankRUNPENALTYTIMEDQ
124389 42MJohn SchmidtFalls Church VA14400:37:4921000:04:2917402:54:439800:01:4513102:01:54 05:40:39 
125293 54MKeith AlstonChesapeake VA22300:41:5427100:06:0417502:55:1720600:03:1510101:54:29 05:40:58 
126305 27MMartin JacarusoGraham NC16800:39:044200:02:2314202:50:3015400:02:2715502:06:56 05:41:18 
127105 46MMike StantonWashington DC20100:40:3012100:03:1518902:57:1721100:03:2411301:57:14 05:41:38 
12824 40MBen GuthrieOlney MD13000:37:0725700:05:2618002:56:0025700:05:3911501:58:03 05:42:13 
129192 25MEnser ColeFalls Church VA1200:28:3314000:03:3117102:54:242700:01:1118502:14:47 05:42:24 
130173 31MCamilo RamirezWashington DC17600:39:1922700:04:5012602:47:5010200:01:4816302:09:00 05:42:44 
131247 46MDavid CulbertsonPittsboro NC17700:39:1918900:04:1315402:52:2216800:02:4214102:04:20 05:42:54 
132340 50MLowell GouldRocky Point NC6600:33:16100:01:2011702:46:32100:00:4321002:21:17 05:43:05 
133531 42MReza MahbodArlington VA18300:39:2721800:04:3816802:54:1521900:03:3812902:01:14 05:43:08 
134229 48MAndrew HeckAmsterdam NY23700:42:2217100:03:5617902:55:526400:01:2912401:59:38 05:43:15 
135150 24MBenjamin HanClifton VA11600:36:353400:02:1924303:09:3110700:01:499901:53:59 05:44:11 
13645 54MDaun SigafooseAbingbon MD4400:32:1613400:03:257102:38:309200:01:4423302:29:10 05:45:04 
137122 31MRoy CheeksBaltimore MD20900:40:5610300:03:0816702:54:013800:01:1814902:05:45 05:45:05 
13813MM49MBrian BucklesSilver Spring MD16500:38:5814300:03:3319802:59:4118400:02:4912702:00:07 05:45:06 
139376 46MScott FirestineHopewell VA18400:39:3611500:03:1315302:52:207600:01:3816002:08:42 05:45:27 
14014MM36MAndrew SergentLake Ridge VA23500:42:1819700:04:2115202:52:0114700:02:2414402:04:41 05:45:44 
141342 45MMarty DejosephWilmington NC11400:36:1413500:03:2616302:53:5116500:02:3916602:09:38 05:45:47 
142235 50MGeorge JanvierAnnapolis MD24100:43:0019100:04:1514402:50:4421500:03:3314302:04:34 05:46:03 
143118 32MBruce ChamblissHalethorpe MD5800:32:521700:02:0213602:49:1111400:01:5320702:20:34 05:46:30 
144138 31MMatthew HussonFredericksburg VA12900:37:0218700:04:1126003:14:4317100:02:437301:48:06 05:46:43 
145130 37MThomas CookKing George VA10100:35:3710500:03:0924003:08:4812000:02:0511201:57:11 05:46:49 
146467C33MJonathan PottertonVirginia Beach VA16300:38:549100:02:5811302:45:4620200:03:0519402:17:07 05:47:48 
14764 28MKevin HagemanArlington VA18100:39:2323900:05:0723503:07:0720000:03:039701:53:16 05:47:54 
148202 39MChristopher BusherSandy Hook VA18500:39:3917500:04:0019502:58:5217400:02:4613502:02:51 05:48:07 
149400 47MRobert WoodsStafford VA26100:44:4410900:03:1214502:50:548000:01:3913802:03:4300:04:0005:48:10 
150411 41MDavid GallagherRichmond VA10900:35:5918000:04:0715902:53:0619500:02:5917602:12:01 05:48:10 
151223 53MJoel IselyPoquoson VA5300:32:354700:02:2617202:54:2912800:02:1019302:16:56 05:48:34 
152480MC51MMichael KemenBel Air MD19300:40:008400:02:5011202:45:4019300:02:5819502:17:18 05:48:45 
153264 47MTim RohrbaughHaywood VA19000:39:5012900:03:2112502:47:4715200:02:2619002:16:05 05:49:27 
15471 38MDan MenmuirWoodbridge VA16200:38:5215800:03:4317002:54:169400:01:4417402:11:36 05:50:09 
PlaceBibCoAgSNAMEcity/stateRankSWIMRankT1RankBikeRankT2RankRUNPENALTYTIMEDQ
15512MM42MJ.P. McDonoughOakton VA24800:43:2810600:03:1016902:54:159600:01:4515902:08:03 05:50:38 
156242 41MMarius JovaisaVilnius AK24600:43:2019300:04:1822803:06:0511200:01:5310801:55:50 05:51:22 
157221 45MJohn McManusMcLean VA7200:33:4114100:03:3112302:47:2710500:01:4922302:25:25 05:51:50 
158195 48MGreg ColemanAlexandria VA22900:42:1214500:03:3316602:54:009300:01:4416902:10:30 05:51:57 
159198 47MBill BurkMcLean VA19400:40:0322300:04:4922603:05:2817200:02:4412001:58:59 05:52:01 
160211 42MMike BruwelheideVirginia Beach VA15900:38:4115100:03:3616202:53:3822500:03:5317902:13:01 05:52:47 
161360 42MTimothy WillisSilver Spring MD23300:42:1726600:05:4314302:50:4417000:02:4317502:11:47 05:53:11 
162285 45MChris TolsdorfWest Chester PA3200:31:2113600:03:2618302:56:2912300:02:0620602:20:27 05:53:49 
163387 49MLarry GoldsteinBel Air MD11500:36:2520600:04:2512702:47:5715900:02:3221402:22:43 05:54:00 
164171 43MRich GroveAshburn VA22200:41:4727000:06:0315702:52:3923400:04:0916702:09:41 05:54:17 
165257 51MKevin ChidwickManakin Sabot VA11100:36:0717900:04:0718702:57:0814600:02:2318302:14:42 05:54:25 
166275 31MAnthony HippleVirginia Beach VA25100:43:4512600:03:1916502:53:5912400:02:0715702:07:3900:04:0005:54:48 
16744 52MDavid SullivanAlexandria VA28700:50:1513700:03:2724203:08:5415100:02:258401:50:02 05:55:02 
168316 40MMatt McCormackAlexandria VA5000:32:3216200:03:4519302:58:2119100:02:5519802:18:03 05:55:34 
169228 40MEriks RichtersWashington DC15500:38:2823500:05:0122103:04:4619900:03:0314202:04:24 05:55:41 
170301 31MChris MurrerWashington DC17500:39:1820000:04:2322503:05:2617700:02:4713902:03:49 05:55:41 
171381 36MJosh LemastersCulpeper VA24700:43:2726800:05:5922003:04:4021700:03:3311601:58:29 05:56:06 
172407 54MWilliam SickenbergerReston VA6100:32:5421100:04:3114102:50:2118600:02:5322502:25:58 05:56:34 
173290 61MJim WaterhouseValatie NY26400:45:3022900:04:5217702:55:2220300:03:0515802:07:59 05:56:47 
174306 26MAlexander Merrick-TagoreRichmond VA20400:40:3121400:04:3514802:51:0518100:02:4719702:17:51 05:56:47 
175177 37MJoel CohenArlington VA20800:40:5129400:08:4123103:06:1324100:04:229201:52:4300:04:0005:56:48 
176350 52MDave HarperReston VA25500:44:0726300:05:3713102:48:5116700:02:4118902:15:58 05:57:13 
177183 53MSam ScogginReston VA2400:30:5514200:03:3118602:57:0515800:02:3221802:23:45 05:57:47 
17893 35MFrantisek SovaTowson MD24900:43:2920900:04:2819402:58:309500:01:4416502:09:38 05:57:47 
179277 38MJohn RahaghiWashington DC23600:42:1815300:03:3721803:04:0118300:02:4815302:06:23 05:59:06 
180366 42MJohn PercherkeBristow VA25800:44:2715000:03:3621103:02:3119600:03:0115202:06:02 05:59:35 
181308 47MMark ThalmanBethesda MD16100:38:5024600:05:1421503:03:1624900:04:5016102:08:48 06:00:56 
182319 42MJay CochranMontgomery Village MD27900:48:2227400:06:1511602:46:0118500:02:5220202:19:49 06:03:16 
183483NM43MDonghui ChenOak Hill VA29300:53:4229000:07:5221703:03:5823700:04:149801:53:55 06:03:40 
184239 38MJoseph CafferataWashington DC13300:37:1921700:04:3725103:11:0811600:02:0116202:08:57 06:04:00 
185271 57MVadim ObertyshevAmsterdam NY19800:40:2326900:06:0118402:56:4324800:04:4119102:16:22 06:04:09 
PlaceBibCoAgSNAMEcity/stateRankSWIMRankT1RankBikeRankT2RankRUNPENALTYTIMEDQ
186145 52MJohn SzczygielArlington VA24500:43:1917700:04:0319602:59:0014200:02:2218702:15:44 06:04:27 
187114 29MKristofer PachlaArlington VA28500:49:5912000:03:1518202:56:212500:01:1118002:13:54 06:04:38 
188364 48MTim GavinAthelstan XX25600:44:1526200:05:3523903:08:1912900:02:1014702:05:10 06:05:27 
189353 29MAlejandro CarrilloKennett Square PA22600:42:0419900:04:2222903:06:0719400:02:5817202:11:23 06:06:52 
190304 54MAllen SimcoeFredericksburg VA16400:38:567900:02:4710002:43:0013100:02:1025002:40:07 06:06:57 
19149 29MJonathan TeterAnnapolis MD28100:48:3825100:05:1723403:06:476700:01:3014502:04:57 06:07:07 
192412 45MMatt HartArlington VA1700:30:0928800:07:3515002:51:2726200:06:5523802:32:06 06:08:11 
193372 45MBernie ConatserWoodbridge VA28300:49:4627200:06:0621203:02:3323300:04:0515002:05:53 06:08:21 
194527 59MRene FarissVirginia Beach VA27100:46:4423600:05:0220603:01:4121600:03:3317102:11:23 06:08:21 
19539 57MGlenn YoungMattaponi VA9300:35:055100:02:2921603:03:296600:01:2922602:26:28 06:08:58 
196119 47MAlberto GonzalezRockville MD15100:38:1218400:04:1020703:02:1122900:03:5720902:21:00 06:09:28 
197408 52MDavid NatoliArlington VA14800:38:0217800:04:0623003:06:1217500:02:4720002:18:34 06:09:38 
198273 44MDavid JoubranWashington DC10700:35:4720400:04:2520203:01:0511100:01:5222902:26:49 06:09:56 
199240 35MJonathan BrownHerndon VA16700:39:0413300:03:2520303:01:0715300:02:2621902:24:04 06:10:04 
200255 45MLloyd BrownBethesda MD17100:39:148300:02:4927503:23:1814400:02:2313602:03:12 06:10:55 
201286 41MMohammad PartoviGaithersburg MD27000:46:3927600:06:1921403:03:0524200:04:2217302:11:28 06:11:52 
202103 47MGene MurankoBaltimore MD19200:39:5725000:05:1624503:09:4611700:02:0218602:15:28 06:12:27 
203132 32MChristopher LindenVirginia Beach VA27700:47:4925800:05:2819002:57:4222100:03:4920102:19:15 06:14:01 
204386 23MNicholas EckhoffWilliamsburg VA800:27:3321300:04:3421003:02:2714500:02:2324602:37:14 06:14:10 
205259 54MGordon HarderBroadalbin NY25700:44:1724500:05:1324903:11:0423800:04:1616402:09:27 06:14:15 
206479MC46MMichael KelleherWashington DC21600:41:2521600:04:3621903:04:2715000:02:2521602:22:58 06:15:49 
207160 49MKevin KusnerOrient OH14500:37:5128600:07:0625703:13:4914800:02:2418402:14:46 06:15:54 
208269 42MBryan CulipherOakton VA13800:37:3420500:04:2522703:06:0213800:02:1922802:26:45 06:17:03 
209244 47MSean GideonVirginia Beach VA27800:48:1217400:04:0018802:57:1214100:02:2122402:25:25 06:17:08 
210191 31MJacob Stevens-KittnerWashington DC13200:37:1415600:03:4028803:31:2318200:02:4813402:02:07 06:17:10 
211214 45MJames RinellaLynchburg VA17400:39:1624700:05:1419702:59:2424500:04:3323202:28:45 06:17:11 
212155 42MDavid CuttinoRichmond VA24200:43:0426400:05:3821303:02:4123200:04:0221702:23:03 06:18:26 
213345 41MAndrew BoyleReston VA13900:37:3623100:04:5318502:57:0226100:06:2324202:33:53 06:19:44 
214266 40MMark FreemanReston VA10800:35:529000:02:5819102:58:1120400:03:0925202:40:30 06:20:37 
215297 27MGeorge PiersonArlington VA17900:39:2125300:05:1927703:23:3811300:01:5317002:10:34 06:20:43 
216465C32MMark RaugustWashington DC21900:41:3620100:04:2322203:04:4920800:03:1823002:26:55 06:20:59 
PlaceBibCoAgSNAMEcity/stateRankSWIMRankT1RankBikeRankT2RankRUNPENALTYTIMEDQ
217405 40MJustin AbernathyWashington DC20000:40:2923300:05:0124403:09:4523100:04:0021202:21:54 06:21:07 
218367 55MJohn OroschSpringfield VA18600:39:4014600:03:3424103:08:5122300:03:5222202:25:14 06:21:10 
21968 34MAllen IrwinAlexandria VA9100:35:0311100:03:1223803:07:5820500:03:1224002:32:40 06:22:03 
2208MM46MJohn SpencerBurke VA21400:41:1524100:05:1026303:15:3718700:02:5318202:14:4000:04:0006:23:33 
221234 51MPhilip DeeterWashington DC28000:48:2416900:03:5527403:22:2822000:03:4615102:05:59 06:24:30 
222478MC46MRobert SmithForest VA12400:36:5425600:05:2520803:02:1222200:03:4924502:36:33 06:24:51 
223260 23MScott HarderBroadalbin NY27500:47:3025400:05:2425203:12:1320900:03:1819202:16:53 06:25:16 
224461 52MRich CarlsonChantilly VA28400:49:5923200:04:5327303:22:2617900:02:4714802:05:24 06:25:27 
225252 60MBruce DouglassFairfax VA26600:45:3923700:05:0520903:02:2116900:02:4223402:29:44 06:25:30 
22651 41MGregory McDonoughWashington DC5600:32:4521900:04:4025403:13:2721000:03:2123902:32:24 06:26:36 
227339 53MWilliam BowenAnnapolis MD15700:38:3327800:06:2325803:13:5025900:06:0521502:22:50 06:27:39 
22882 50MJim DonleyBethesda MD22500:42:0119500:04:2026803:18:5421200:03:2620502:20:22 06:29:01 
22911MM24MCharles AugustineVirginia Beach VA21200:41:1119200:04:1727203:20:3811800:02:0421102:21:21 06:29:30 
23061 32MRob Van HooserAlexandria VA28200:49:1722100:04:4424603:09:5813700:02:1620402:19:5900:04:0006:30:12 
231179 44MDaniele PodiniWashington DC20200:40:3028500:07:0227603:23:3125300:05:0718802:15:50 06:31:58Y
23247 55MDouglas HartmanSpringfield VA29600:58:2318300:04:0925303:12:1713500:02:1320802:20:43 06:37:43 
233284 37MAdam SippFredericksburg VA22100:41:4326500:05:4223603:07:2424600:04:3324902:40:01 06:39:22 
234476MC49MRobert VelandVirginia Beach VA29100:51:3626000:05:3223303:06:3226000:06:0523502:29:44 06:39:27 
2359MM37MJesse PitzrickStafford VA26000:44:4216500:03:5127103:20:1219700:03:0123102:28:29 06:40:13 
236253 38MSteven KimGaithersburg MD25900:44:3015500:03:3926403:15:5815600:02:3124302:34:39 06:41:15 
237359 38MPatrick RipleyRichmond VA26900:46:2226100:05:3426503:16:1018800:02:5323602:30:23 06:41:20 
23842 37MBrandon NaimolaWashington Dc DC24400:43:1129300:08:3720503:01:3922800:03:5525102:40:1700:04:0006:41:37 
2394MM30MThomas MacPheeFredericksburg VA28600:50:1023000:04:5326103:15:0525400:05:0822702:26:31 06:41:44 
24069 38MAyal CohenAlexandria VA23900:42:2624800:05:1528003:26:2125100:04:5420302:19:5500:04:0006:42:49 
241157 35MDexter BraithwaiteIndian Head MD29700:58:5529200:08:2225003:11:0826500:07:5919602:17:47 06:44:08 
242131 39MMartin WeissGaithersburg MD24300:43:0828300:06:5027803:24:0525800:06:0022102:24:29 06:44:30 
24332 35MChad StewartLorton VA21300:41:1223400:05:0127003:18:5825500:05:1224702:37:14 06:47:35 
244287 29MSteve RayBaltimore MD           06:48:24 
245207 23MJames StraneIrwin PA21700:41:266700:02:4129203:58:0216400:02:3915402:06:32 06:51:18 
246124 44MJames RichardsonChantilly VA8800:34:5828700:07:2526203:15:2325600:05:2825402:48:26 06:51:38 
247230 25MAnthony LeonettiAmsterdam NY29901:07:3018200:04:0825603:13:4725200:04:5619902:18:0500:04:0006:52:24 
PlaceBibCoAgSNAMEcity/stateRankSWIMRankT1RankBikeRankT2RankRUNPENALTYTIMEDQ
248391 61MBilly LoydMorehead City NC23200:42:1419600:04:2125903:14:1919200:02:5525502:48:50 06:52:37 
24989 26MMark LamontColumbia MD23100:42:1322200:04:4823703:07:3020700:03:1525602:55:01 06:52:46 
250281 64MJim RudgeNorth Myrtle Beach SC26500:45:3219800:04:2226903:18:5623500:04:1325302:40:46 06:53:48 
251317 37MMatthew WatsonVienna VA13400:37:2027500:06:1728903:47:2524000:04:1921302:22:34 06:57:53 
252477MC45MJohn PanekBowie MD27300:47:2322000:04:4128303:29:2918900:02:5324102:33:41 06:58:06 
253330 48MJames BorcheltHavre De Grace MD21000:41:0020800:04:2622403:05:0421400:03:2825903:05:46 06:59:43 
254165 56MBrian GudmundssonFredericksburg VA22400:42:0122800:04:5228703:31:0022400:03:5324802:38:49 07:00:32 
2551MM32MErik BoydVirginia Beach VA29200:53:0316100:03:4428203:28:0823600:04:1323702:31:48 07:00:55 
25655 45MThomas ColuciaArlington VA26700:46:1629600:09:0228603:30:1325000:04:5224402:36:29 07:06:50 
25716MM42MTom KoderaMcLean VA30001:09:3729100:07:5429003:50:2115700:02:3212301:59:33 07:09:56 
258388 39MScott ShakerAlexandria VA27600:47:4514700:03:3426603:16:5616300:02:3725703:00:55 07:11:45 
259463C39MSean PerkinsRockville MD26300:44:5728900:07:4123203:06:2926400:07:4326003:11:51 07:18:39 
260278 66MJim VanceCulpeper VA29400:54:3724900:05:1528403:29:4822600:03:5425803:02:10 07:35:43 
261346 52MCharles CampbellLeesburg VA15600:38:2924000:05:0829604:26:1126300:07:1822002:24:14 07:41:18 
262401 53MMike MitchellWashington DC29801:01:1429500:08:47       08:01:49 

** Results are for the private use of participants and are the Intellectual Property of Set Up Events. Unauthorized use of these results is prohibited.